createdAt,value
2017-05-19T00:00:11.401Z,927.7
2017-05-19T00:00:24.330Z,927.69
2017-05-19T00:00:37.744Z,927.7
2017-05-19T00:00:51.152Z,927.67
2017-05-19T00:01:04.590Z,927.7
2017-05-19T00:01:17.609Z,927.74
2017-05-19T00:01:31.023Z,927.7
2017-05-19T00:01:44.119Z,927.69
2017-05-19T00:01:57.142Z,927.68
2017-05-19T00:02:10.132Z,927.67
2017-05-19T00:02:23.391Z,927.67
2017-05-19T00:02:36.887Z,927.69
2017-05-19T00:02:50.700Z,927.62
2017-05-19T00:03:04.815Z,927.6
2017-05-19T00:03:18.331Z,927.63
2017-05-19T00:03:31.213Z,927.6
2017-05-19T00:03:44.090Z,927.61
2017-05-19T00:03:57.529Z,927.61
2017-05-19T00:04:11.013Z,927.6
2017-05-19T00:04:24.398Z,927.55
2017-05-19T00:04:37.337Z,927.54
2017-05-19T00:04:50.705Z,927.53
2017-05-19T00:05:03.835Z,927.49
2017-05-19T00:05:17.224Z,927.49
2017-05-19T00:05:30.628Z,927.42
2017-05-19T00:05:44.034Z,927.46
2017-05-19T00:05:56.969Z,927.5
2017-05-19T00:06:10.375Z,927.48
2017-05-19T00:06:23.845Z,927.46
2017-05-19T00:06:36.794Z,927.46
2017-05-19T00:06:50.417Z,927.41
2017-05-19T00:07:03.336Z,927.39
2017-05-19T00:07:16.238Z,927.42
2017-05-19T00:07:29.627Z,927.39
2017-05-19T00:07:42.525Z,927.41
2017-05-19T00:07:55.959Z,927.41
2017-05-19T00:08:08.880Z,927.41
2017-05-19T00:08:21.352Z,927.44
2017-05-19T00:08:34.293Z,927.39
2017-05-19T00:08:47.724Z,927.42
2017-05-19T00:09:01.225Z,927.43
2017-05-19T00:09:14.193Z,927.45
2017-05-19T00:09:27.696Z,927.47
2017-05-19T00:09:40.604Z,927.45
2017-05-19T00:09:53.732Z,927.44
2017-05-19T00:10:07.154Z,927.46
2017-05-19T00:10:18.948Z,927.45
2017-05-19T00:10:31.823Z,927.45
2017-05-19T00:10:45.156Z,927.46
2017-05-19T00:10:58.561Z,927.46
2017-05-19T00:11:10.950Z,927.47
2017-05-19T00:11:23.967Z,927.45
2017-05-19T00:11:37.413Z,927.46
2017-05-19T00:11:50.800Z,927.45
2017-05-19T00:12:04.260Z,927.43
2017-05-19T00:12:17.649Z,927.42
2017-05-19T00:12:30.500Z,927.39
2017-05-19T00:12:43.922Z,927.42
2017-05-19T00:12:57.393Z,927.4
2017-05-19T00:13:10.868Z,927.36
2017-05-19T00:13:23.774Z,927.4
2017-05-19T00:13:36.785Z,927.42
2017-05-19T00:13:50.222Z,927.38
2017-05-19T00:14:03.702Z,927.39
2017-05-19T00:14:17.178Z,927.44
2017-05-19T00:14:30.606Z,927.46
2017-05-19T00:14:43.962Z,927.44
2017-05-19T00:14:57.326Z,927.42
2017-05-19T00:15:09.682Z,927.4
2017-05-19T00:15:22.580Z,927.4
2017-05-19T00:15:36.045Z,927.41
2017-05-19T00:15:48.922Z,927.38
2017-05-19T00:16:01.978Z,927.39
2017-05-19T00:16:14.874Z,927.42
2017-05-19T00:16:27.843Z,927.41
2017-05-19T00:16:40.433Z,927.4
2017-05-19T00:16:53.869Z,927.4
2017-05-19T00:17:06.246Z,927.42
2017-05-19T00:17:19.654Z,927.42
2017-05-19T00:17:32.526Z,927.42
2017-05-19T00:17:45.925Z,927.41
2017-05-19T00:17:59.346Z,927.4
2017-05-19T00:18:11.776Z,927.45
2017-05-19T00:18:25.174Z,927.42
2017-05-19T00:18:38.097Z,927.42
2017-05-19T00:18:51.027Z,927.4
2017-05-19T00:19:04.417Z,927.41
2017-05-19T00:19:17.268Z,927.37
2017-05-19T00:19:29.065Z,927.41
2017-05-19T00:19:42.469Z,927.41
2017-05-19T00:19:55.920Z,927.41
2017-05-19T00:20:09.242Z,927.42
2017-05-19T00:20:22.138Z,927.38
2017-05-19T00:20:35.628Z,927.38
2017-05-19T00:20:48.562Z,927.33
2017-05-19T00:21:02.006Z,927.32
2017-05-19T00:21:13.862Z,927.32
2017-05-19T00:21:27.286Z,927.31
2017-05-19T00:21:40.217Z,927.32
2017-05-19T00:21:53.638Z,927.31
2017-05-19T00:22:06.977Z,927.29
2017-05-19T00:22:18.820Z,927.3
2017-05-19T00:22:31.212Z,927.25
2017-05-19T00:22:45.593Z,927.28
2017-05-19T00:22:59.006Z,927.28
2017-05-19T00:23:11.935Z,927.23
2017-05-19T00:23:24.854Z,927.25
2017-05-19T00:23:38.262Z,927.22
2017-05-19T00:23:51.694Z,927.23
2017-05-19T00:24:05.157Z,927.18
2017-05-19T00:24:18.157Z,927.16
2017-05-19T00:24:30.478Z,927.19
2017-05-19T00:24:43.865Z,927.18
2017-05-19T00:24:57.260Z,927.23
2017-05-19T00:25:10.154Z,927.18
2017-05-19T00:25:23.044Z,927.21
2017-05-19T00:25:35.951Z,927.19
2017-05-19T00:25:49.377Z,927.13
2017-05-19T00:26:02.794Z,927.17
2017-05-19T00:26:14.665Z,927.15
2017-05-19T00:26:27.900Z,927.15
2017-05-19T00:26:40.851Z,927.2
2017-05-19T00:26:54.203Z,927.21
2017-05-19T00:27:06.284Z,927.16
2017-05-19T00:27:19.183Z,927.2
2017-05-19T00:27:32.619Z,927.19
2017-05-19T00:27:45.538Z,927.18
2017-05-19T00:27:58.962Z,927.2
2017-05-19T00:28:10.773Z,927.2
2017-05-19T00:28:23.662Z,927.19
2017-05-19T00:28:37.055Z,927.22
2017-05-19T00:28:50.508Z,927.2
2017-05-19T00:29:03.395Z,927.19
2017-05-19T00:29:16.273Z,927.21
2017-05-19T00:29:29.738Z,927.17
2017-05-19T00:29:42.637Z,927.23
2017-05-19T00:29:56.062Z,927.21
2017-05-19T00:30:09.531Z,927.2
2017-05-19T00:30:22.965Z,927.17
2017-05-19T00:30:36.495Z,927.17
2017-05-19T00:30:50.023Z,927.18
2017-05-19T00:31:03.454Z,927.21
2017-05-19T00:31:48.114Z,927.13
2017-05-19T00:32:01.572Z,927.14
2017-05-19T00:32:13.942Z,927.14
2017-05-19T00:32:27.407Z,927.25
2017-05-19T00:32:40.329Z,927.12
2017-05-19T00:32:53.754Z,927.12
2017-05-19T00:33:07.189Z,927.09
2017-05-19T00:33:20.036Z,927.11
2017-05-19T00:33:32.924Z,927.15
2017-05-19T00:33:45.819Z,927.13
2017-05-19T00:33:59.196Z,927.08
2017-05-19T00:34:12.053Z,927.08
2017-05-19T00:34:25.041Z,927.08
2017-05-19T00:34:37.886Z,927.1
2017-05-19T00:34:51.327Z,927.11
2017-05-19T00:35:04.731Z,927.07
2017-05-19T00:35:17.107Z,927.05
2017-05-19T00:35:30.026Z,927.08
2017-05-19T00:35:43.479Z,927.08
2017-05-19T00:35:56.941Z,927.07
2017-05-19T00:36:09.334Z,927.08
2017-05-19T00:36:22.771Z,927.08
2017-05-19T00:36:36.132Z,927.09
2017-05-19T00:36:49.595Z,927.11
2017-05-19T00:37:03.031Z,927.18
2017-05-19T00:37:15.893Z,927.13
2017-05-19T00:37:29.028Z,927.17
2017-05-19T00:37:42.440Z,927.13
2017-05-19T00:37:55.817Z,927.2
2017-05-19T00:38:08.765Z,927.18
2017-05-19T00:38:22.103Z,927.22
2017-05-19T00:38:35.491Z,927.26
2017-05-19T00:38:48.904Z,927.23
2017-05-19T00:39:02.248Z,927.25
2017-05-19T00:39:14.595Z,927.23
2017-05-19T00:39:27.554Z,927.23
2017-05-19T00:39:41.004Z,927.27
2017-05-19T00:39:54.401Z,927.24
2017-05-19T00:40:07.312Z,927.24
2017-05-19T00:40:20.246Z,927.24
2017-05-19T00:40:33.650Z,927.25
2017-05-19T00:40:47.015Z,927.25
2017-05-19T00:41:00.536Z,927.2
2017-05-19T00:41:14.081Z,927.21
2017-05-19T00:41:27.693Z,927.21
2017-05-19T00:41:41.098Z,927.22
2017-05-19T00:41:54.593Z,927.21
2017-05-19T00:42:08.053Z,927.19
2017-05-19T00:42:20.994Z,927.19
2017-05-19T00:42:34.431Z,927.16
2017-05-19T00:42:47.331Z,927.18
2017-05-19T00:43:00.260Z,927.16
2017-05-19T00:43:13.652Z,927.19
2017-05-19T00:43:27.049Z,927.16
2017-05-19T00:43:39.395Z,927.15
2017-05-19T00:43:51.222Z,927.12
2017-05-19T00:44:04.326Z,927.14
2017-05-19T00:44:16.701Z,927.19
2017-05-19T00:45:07.536Z,927.17
2017-05-19T00:45:19.378Z,927.16
2017-05-19T00:45:32.274Z,927.16
2017-05-19T00:45:45.695Z,927.11
2017-05-19T00:45:59.164Z,927.12
2017-05-19T00:46:12.023Z,927.16
2017-05-19T00:46:24.918Z,927.19
2017-05-19T00:46:37.870Z,927.19
2017-05-19T00:46:51.258Z,927.22
2017-05-19T00:47:04.652Z,927.19
2017-05-19T00:47:18.087Z,927.17
2017-05-19T00:47:30.967Z,927.17
2017-05-19T00:47:44.387Z,927.18
2017-05-19T00:47:57.809Z,927.21
2017-05-19T00:48:11.175Z,927.18
2017-05-19T00:48:24.073Z,927.17
2017-05-19T00:48:37.499Z,927.19
2017-05-19T00:48:50.362Z,927.19
2017-05-19T00:49:03.801Z,927.25
2017-05-19T00:49:17.263Z,927.2
2017-05-19T00:49:30.188Z,927.28
2017-05-19T00:49:43.596Z,927.3
2017-05-19T00:49:57.009Z,927.25
2017-05-19T00:50:09.943Z,927.28
2017-05-19T00:50:23.367Z,927.31
2017-05-19T00:50:36.806Z,927.22
2017-05-19T00:50:50.247Z,927.3
2017-05-19T00:51:03.614Z,927.26
2017-05-19T00:51:16.453Z,927.26
2017-05-19T00:51:29.814Z,927.29
2017-05-19T00:51:43.192Z,927.31
2017-05-19T00:51:56.645Z,927.24
2017-05-19T00:52:09.058Z,927.28
2017-05-19T00:52:22.452Z,927.29
2017-05-19T00:52:35.319Z,927.29
2017-05-19T00:52:48.219Z,927.24
2017-05-19T00:53:01.660Z,927.28
2017-05-19T00:53:14.559Z,927.25
2017-05-19T00:53:27.985Z,927.23
2017-05-19T00:53:40.809Z,927.26
2017-05-19T00:53:54.237Z,927.22
2017-05-19T00:54:07.121Z,927.21
2017-05-19T00:54:19.979Z,927.2
2017-05-19T00:54:32.878Z,927.21
2017-05-19T00:54:45.799Z,927.2
2017-05-19T00:54:59.271Z,927.21
2017-05-19T00:55:12.169Z,927.16
2017-05-19T00:55:25.597Z,927.16
2017-05-19T00:55:38.981Z,927.13
2017-05-19T00:55:51.900Z,927.16
2017-05-19T00:56:04.841Z,927.14
2017-05-19T00:56:17.753Z,927.13
2017-05-19T00:56:31.235Z,927.16
2017-05-19T00:56:44.691Z,927.13
2017-05-19T00:56:58.385Z,927.12
2017-05-19T00:57:11.803Z,927.14
2017-05-19T00:57:25.310Z,927.12
2017-05-19T00:57:38.743Z,927.08
2017-05-19T00:57:51.121Z,927.11
2017-05-19T00:58:04.568Z,927.09
2017-05-19T00:58:16.925Z,927.08
2017-05-19T00:58:30.288Z,927.13
2017-05-19T00:58:43.657Z,927.09
2017-05-19T00:58:56.589Z,927.12
2017-05-19T00:59:09.511Z,927.12
2017-05-19T00:59:22.986Z,927.14
2017-05-19T00:59:35.879Z,927.13
2017-05-19T00:59:49.319Z,927.1
2017-05-19T01:00:02.723Z,927.14
2017-05-19T01:00:15.130Z,927.12
2017-05-19T01:00:28.064Z,927.13
2017-05-19T01:00:41.263Z,927.11
2017-05-19T01:00:54.700Z,927.15
2017-05-19T01:01:08.059Z,927.12
2017-05-19T01:01:21.997Z,927.14
2017-05-19T01:01:35.641Z,927.13
2017-05-19T01:01:49.189Z,927.17
2017-05-19T01:02:02.136Z,927.14
2017-05-19T01:02:13.456Z,927.15
2017-05-19T01:02:25.985Z,927.16
2017-05-19T01:02:39.359Z,927.12
2017-05-19T01:02:51.801Z,927.16
2017-05-19T01:03:05.316Z,927.17
2017-05-19T01:03:18.805Z,927.15
2017-05-19T01:03:32.377Z,927.16
2017-05-19T01:03:45.856Z,927.18
2017-05-19T01:03:59.366Z,927.17
2017-05-19T01:04:12.361Z,927.16
2017-05-19T01:04:25.825Z,927.2
2017-05-19T01:04:39.405Z,927.21
2017-05-19T01:04:52.838Z,927.19
2017-05-19T01:05:06.301Z,927.19
2017-05-19T01:05:19.787Z,927.17
2017-05-19T01:05:31.664Z,927.23
2017-05-19T01:05:45.141Z,927.2
2017-05-19T01:05:58.521Z,927.23
2017-05-19T01:06:10.876Z,927.2
2017-05-19T01:06:24.315Z,927.19
2017-05-19T01:06:37.862Z,927.22
2017-05-19T01:06:51.279Z,927.21
2017-05-19T01:07:04.187Z,927.23
2017-05-19T01:07:16.608Z,927.24
2017-05-19T01:07:30.000Z,927.21
2017-05-19T01:07:42.963Z,927.23
2017-05-19T01:07:56.646Z,927.26
2017-05-19T01:08:08.950Z,927.23
2017-05-19T01:08:21.297Z,927.22
2017-05-19T01:08:34.713Z,927.23
2017-05-19T01:08:47.726Z,927.23
2017-05-19T01:09:01.173Z,927.21
2017-05-19T01:09:14.007Z,927.21
2017-05-19T01:09:27.454Z,927.22
2017-05-19T01:09:40.845Z,927.21
2017-05-19T01:09:54.312Z,927.19
2017-05-19T01:10:07.799Z,927.22
2017-05-19T01:10:20.194Z,927.19
2017-05-19T01:10:34.261Z,927.25
2017-05-19T01:10:47.142Z,927.22
2017-05-19T01:11:00.651Z,927.22
2017-05-19T01:11:14.102Z,927.2
2017-05-19T01:11:27.575Z,927.22
2017-05-19T01:11:40.997Z,927.2
2017-05-19T01:11:54.448Z,927.22
2017-05-19T01:12:07.581Z,927.2
2017-05-19T01:12:19.946Z,927.22
2017-05-19T01:12:32.826Z,927.21
2017-05-19T01:12:46.341Z,927.21
2017-05-19T01:12:59.803Z,927.2
2017-05-19T01:13:14.185Z,927.21
2017-05-19T01:13:27.643Z,927.22
2017-05-19T01:13:41.069Z,927.25
2017-05-19T01:13:54.490Z,927.24
2017-05-19T01:14:07.443Z,927.26
2017-05-19T01:14:20.355Z,927.23
2017-05-19T01:14:33.346Z,927.24
2017-05-19T01:14:46.218Z,927.24
2017-05-19T01:14:59.975Z,927.17
2017-05-19T01:15:12.908Z,927.21
2017-05-19T01:15:27.080Z,927.19
2017-05-19T01:15:40.608Z,927.18
2017-05-19T01:15:53.549Z,927.16
2017-05-19T01:16:06.426Z,927.16
2017-05-19T01:16:19.389Z,927.17
2017-05-19T01:16:31.795Z,927.18
2017-05-19T01:16:45.254Z,927.19
2017-05-19T01:16:58.150Z,927.18
2017-05-19T01:17:10.580Z,927.19
2017-05-19T01:17:23.494Z,927.1
2017-05-19T01:17:36.918Z,927.1
2017-05-19T01:17:49.765Z,927.11
2017-05-19T01:18:03.240Z,927.16
2017-05-19T01:18:16.660Z,927.12
2017-05-19T01:18:29.705Z,927.09
2017-05-19T01:18:42.629Z,927.13
2017-05-19T01:18:56.097Z,927.13
2017-05-19T01:19:09.033Z,927.16
2017-05-19T01:19:22.044Z,927.15
2017-05-19T01:19:34.964Z,927.17
2017-05-19T01:19:48.389Z,927.14
2017-05-19T01:20:01.866Z,927.14
2017-05-19T01:20:15.270Z,927.16
2017-05-19T01:20:28.627Z,927.17
2017-05-19T01:20:41.559Z,927.19
2017-05-19T01:20:56.384Z,927.18
2017-05-19T01:21:09.868Z,927.19
2017-05-19T01:21:23.463Z,927.24
2017-05-19T01:21:36.920Z,927.19
2017-05-19T01:21:50.585Z,927.19
2017-05-19T01:22:04.363Z,927.18
2017-05-19T01:22:17.834Z,927.16
2017-05-19T01:22:31.361Z,927.18
2017-05-19T01:22:44.294Z,927.18
2017-05-19T01:22:57.823Z,927.2
2017-05-19T01:23:10.685Z,927.2
2017-05-19T01:23:24.896Z,927.2
2017-05-19T01:23:39.101Z,927.18
2017-05-19T01:23:52.621Z,927.22
2017-05-19T01:24:07.977Z,927.23
2017-05-19T01:24:21.449Z,927.2
2017-05-19T01:24:35.153Z,927.21
2017-05-19T01:24:48.865Z,927.25
2017-05-19T01:25:02.444Z,927.21
2017-05-19T01:25:15.882Z,927.23
2017-05-19T01:25:29.423Z,927.2
2017-05-19T01:25:42.872Z,927.19
2017-05-19T01:25:56.343Z,927.2
2017-05-19T01:26:09.187Z,927.17
2017-05-19T01:26:22.680Z,927.22
2017-05-19T01:26:37.559Z,927.19
2017-05-19T01:28:43.382Z,927.17
2017-05-19T01:28:56.827Z,927.18
2017-05-19T01:29:10.289Z,927.17
2017-05-19T01:29:23.740Z,927.12
2017-05-19T01:30:17.612Z,927.17
2017-05-19T01:30:54.770Z,927.12
2017-05-19T01:31:14.500Z,927.13
2017-05-19T01:32:06.337Z,927.14
2017-05-19T01:32:19.255Z,927.19
2017-05-19T01:32:32.706Z,927.17
2017-05-19T01:32:45.656Z,927.15
2017-05-19T01:33:02.156Z,927.15
2017-05-19T01:33:15.021Z,927.13
2017-05-19T01:33:27.378Z,927.18
2017-05-19T01:33:42.496Z,927.17
2017-05-19T01:34:03.066Z,927.16
2017-05-19T01:34:16.496Z,927.18
2017-05-19T01:34:28.835Z,927.18
2017-05-19T01:34:42.340Z,927.15
2017-05-19T01:34:55.251Z,927.18
2017-05-19T01:35:08.712Z,927.19
2017-05-19T01:35:22.347Z,927.15
2017-05-19T01:35:35.219Z,927.11
2017-05-19T01:35:48.162Z,927.12
2017-05-19T01:36:01.582Z,927.1
2017-05-19T01:36:14.449Z,927.12
2017-05-19T01:36:27.897Z,927.12
2017-05-19T01:36:41.312Z,927.09
2017-05-19T01:36:54.747Z,927.07
2017-05-19T01:37:07.155Z,927.09
2017-05-19T01:37:20.023Z,927.1
2017-05-19T01:37:33.488Z,927.12
2017-05-19T01:37:46.940Z,927.08
2017-05-19T01:38:00.305Z,927.04
2017-05-19T01:38:13.168Z,927.05
2017-05-19T01:38:25.571Z,927.09
2017-05-19T01:38:39.249Z,927.05
2017-05-19T01:38:52.164Z,926.97
2017-05-19T01:39:05.582Z,927.03
2017-05-19T01:39:18.451Z,927.03
2017-05-19T01:39:31.901Z,927
2017-05-19T01:39:45.385Z,927.04
2017-05-19T01:39:58.800Z,927
2017-05-19T01:40:11.703Z,927.01
2017-05-19T01:40:24.589Z,927
2017-05-19T01:40:38.016Z,927.04
2017-05-19T01:40:51.482Z,927.05
2017-05-19T01:41:04.876Z,927.02
2017-05-19T01:41:17.194Z,927
2017-05-19T01:41:30.572Z,927.01
2017-05-19T01:41:44.058Z,927
2017-05-19T01:41:57.499Z,927
2017-05-19T01:42:10.919Z,927.02
2017-05-19T01:42:23.235Z,927.02
2017-05-19T01:42:36.124Z,927
2017-05-19T01:42:49.539Z,926.95
2017-05-19T01:43:02.491Z,926.98
2017-05-19T01:43:15.544Z,926.96
2017-05-19T01:43:28.497Z,926.96
2017-05-19T01:43:42.073Z,926.97
2017-05-19T01:43:55.555Z,926.94
2017-05-19T01:44:07.893Z,926.95
2017-05-19T01:44:20.831Z,926.92
2017-05-19T01:44:33.695Z,926.94
2017-05-19T01:44:47.077Z,926.95
2017-05-19T01:45:00.509Z,926.9
2017-05-19T01:45:13.447Z,926.84
2017-05-19T01:45:26.305Z,926.86
2017-05-19T01:45:39.762Z,926.81
2017-05-19T01:45:53.210Z,926.85
2017-05-19T01:46:06.207Z,926.86
2017-05-19T01:46:20.325Z,926.74
2017-05-19T01:46:33.258Z,926.77
2017-05-19T01:46:46.125Z,926.8
2017-05-19T01:46:59.591Z,926.77
2017-05-19T01:47:12.010Z,926.79
2017-05-19T01:47:24.931Z,926.73
2017-05-19T01:47:37.909Z,926.73
2017-05-19T01:47:51.324Z,926.8
2017-05-19T01:48:04.827Z,926.7
2017-05-19T01:48:17.725Z,926.72
2017-05-19T01:48:30.123Z,926.72
2017-05-19T01:48:42.511Z,926.7
2017-05-19T01:48:55.986Z,926.73
2017-05-19T01:49:08.867Z,926.7
2017-05-19T01:49:21.754Z,926.77
2017-05-19T01:49:34.253Z,926.66
2017-05-19T01:49:47.101Z,926.64
2017-05-19T01:50:00.500Z,926.67
2017-05-19T01:50:13.433Z,926.71
2017-05-19T01:50:26.900Z,926.76
2017-05-19T01:50:40.301Z,926.64
2017-05-19T01:50:53.783Z,926.7
2017-05-19T01:51:06.674Z,926.71
2017-05-19T01:51:18.581Z,926.77
2017-05-19T01:51:31.425Z,926.73
2017-05-19T01:51:44.355Z,926.72
2017-05-19T01:51:57.771Z,926.78
2017-05-19T01:52:11.223Z,926.77
2017-05-19T01:52:24.150Z,926.81
2017-05-19T01:52:37.016Z,926.79
2017-05-19T01:52:50.408Z,926.76
2017-05-19T01:53:03.836Z,926.82
2017-05-19T01:53:16.757Z,926.81
2017-05-19T01:53:30.236Z,926.83
2017-05-19T01:53:43.914Z,926.82
2017-05-19T01:53:57.325Z,926.82
2017-05-19T01:54:10.266Z,926.84
2017-05-19T01:54:23.713Z,926.81
2017-05-19T01:54:37.104Z,926.83
2017-05-19T01:54:50.518Z,926.82
2017-05-19T01:55:04.059Z,926.79
2017-05-19T01:55:17.771Z,926.83
2017-05-19T01:55:31.257Z,926.81
2017-05-19T01:55:44.720Z,926.85
2017-05-19T01:55:58.189Z,926.86
2017-05-19T01:56:11.611Z,926.86
2017-05-19T01:56:25.136Z,926.88
2017-05-19T01:56:38.558Z,926.87
2017-05-19T01:56:51.962Z,926.87
2017-05-19T01:57:05.673Z,926.9
2017-05-19T01:57:18.586Z,926.91
2017-05-19T01:57:31.991Z,926.93
2017-05-19T01:57:45.403Z,926.88
2017-05-19T01:57:59.385Z,926.92
2017-05-19T01:58:12.870Z,926.98
2017-05-19T01:58:26.356Z,926.93
2017-05-19T01:58:39.731Z,926.99
2017-05-19T01:58:53.367Z,926.96
2017-05-19T01:59:06.811Z,926.94
2017-05-19T01:59:20.258Z,926.98
2017-05-19T01:59:33.643Z,926.99
2017-05-19T01:59:46.530Z,926.95
2017-05-19T01:59:59.442Z,926.98
2017-05-19T02:00:11.875Z,926.92
2017-05-19T02:00:24.865Z,926.96
2017-05-19T02:00:38.347Z,926.94
2017-05-19T02:00:51.784Z,926.96
2017-05-19T02:01:05.238Z,926.98
2017-05-19T02:01:18.158Z,926.96
2017-05-19T02:01:30.486Z,926.94
2017-05-19T02:01:43.942Z,926.93
2017-05-19T02:01:57.387Z,926.91
2017-05-19T02:02:10.820Z,926.93
2017-05-19T02:02:26.910Z,926.97
2017-05-19T02:02:39.872Z,927.05
2017-05-19T02:02:53.338Z,926.94
2017-05-19T02:03:06.838Z,926.94
2017-05-19T02:03:20.265Z,926.93
2017-05-19T02:03:33.648Z,926.93
2017-05-19T02:03:47.007Z,926.97
2017-05-19T02:04:00.223Z,926.96
2017-05-19T02:04:13.631Z,926.94
2017-05-19T02:04:27.076Z,926.91
2017-05-19T02:04:40.685Z,926.93
2017-05-19T02:04:54.088Z,926.94
2017-05-19T02:05:07.479Z,926.96
2017-05-19T02:05:20.325Z,926.95
2017-05-19T02:05:33.438Z,926.95
2017-05-19T02:05:48.036Z,926.95
2017-05-19T02:06:01.439Z,926.96
2017-05-19T02:06:15.182Z,926.9
2017-05-19T02:06:28.672Z,926.91
2017-05-19T02:06:42.098Z,926.94
2017-05-19T02:06:56.307Z,926.97
2017-05-19T02:07:09.799Z,926.96
2017-05-19T02:07:25.429Z,926.95
2017-05-19T02:07:38.832Z,926.9
2017-05-19T02:07:52.346Z,926.95
2017-05-19T02:08:05.771Z,926.9
2017-05-19T02:08:19.676Z,926.91
2017-05-19T02:08:33.174Z,926.88
2017-05-19T02:08:47.399Z,926.9
2017-05-19T02:09:00.888Z,926.89
2017-05-19T02:09:14.336Z,926.9
2017-05-19T02:09:27.372Z,926.88
2017-05-19T02:09:40.781Z,926.86
2017-05-19T02:09:53.669Z,926.87
2017-05-19T02:10:07.120Z,926.83
2017-05-19T02:10:20.506Z,926.81
2017-05-19T02:10:34.251Z,926.83
2017-05-19T02:10:47.700Z,926.84
2017-05-19T02:11:00.650Z,926.84
2017-05-19T02:11:13.585Z,926.86
2017-05-19T02:11:26.477Z,926.84
2017-05-19T02:11:39.871Z,926.82
2017-05-19T02:11:53.349Z,926.86
2017-05-19T02:12:06.247Z,926.86
2017-05-19T02:12:19.244Z,926.86
2017-05-19T02:12:32.702Z,926.87
2017-05-19T02:12:46.082Z,926.84
2017-05-19T02:12:59.515Z,926.88
2017-05-19T02:13:12.400Z,926.92
2017-05-19T02:13:25.787Z,926.85
2017-05-19T02:13:39.710Z,926.82
2017-05-19T02:13:53.341Z,926.91
2017-05-19T02:14:06.781Z,926.83
2017-05-19T02:14:18.682Z,926.84
2017-05-19T02:14:31.059Z,926.81
2017-05-19T02:14:44.481Z,926.82
2017-05-19T02:14:57.867Z,926.83
2017-05-19T02:15:10.751Z,926.83
2017-05-19T02:15:24.163Z,926.81
2017-05-19T02:15:37.010Z,926.81
2017-05-19T02:15:50.467Z,926.8
2017-05-19T02:16:03.927Z,926.81
2017-05-19T02:16:16.891Z,926.79
2017-05-19T02:16:29.805Z,926.75
2017-05-19T02:16:43.185Z,926.78
2017-05-19T02:16:56.677Z,926.68
2017-05-19T02:17:10.134Z,926.76
2017-05-19T02:17:22.999Z,926.73
2017-05-19T02:17:36.354Z,926.74
2017-05-19T02:17:49.763Z,926.73
2017-05-19T02:18:03.184Z,926.74
2017-05-19T02:18:15.048Z,926.73
2017-05-19T02:18:27.939Z,926.73
2017-05-19T02:18:41.350Z,926.75
2017-05-19T02:18:54.738Z,926.76
2017-05-19T02:19:08.175Z,926.74
2017-05-19T02:19:20.070Z,926.76
2017-05-19T02:19:33.526Z,926.75
2017-05-19T02:19:47.001Z,926.78
2017-05-19T02:20:00.432Z,926.78
2017-05-19T02:20:12.779Z,926.83
2017-05-19T02:20:26.173Z,926.8
2017-05-19T02:20:39.669Z,926.76
2017-05-19T02:20:53.150Z,926.74
2017-05-19T02:21:06.548Z,926.79
2017-05-19T02:21:19.443Z,926.77
2017-05-19T02:21:32.965Z,926.78
2017-05-19T02:21:46.414Z,926.78
2017-05-19T02:21:59.815Z,926.81
2017-05-19T02:22:13.259Z,926.79
2017-05-19T02:22:26.733Z,926.82
2017-05-19T02:22:40.140Z,926.82
2017-05-19T02:22:53.521Z,926.8
2017-05-19T02:23:06.942Z,926.86
2017-05-19T02:23:19.869Z,926.82
2017-05-19T02:23:33.327Z,926.82
2017-05-19T02:23:46.738Z,926.83
2017-05-19T02:24:00.345Z,926.84
2017-05-19T02:24:13.733Z,926.78
2017-05-19T02:24:26.070Z,926.81
2017-05-19T02:24:39.525Z,926.82
2017-05-19T02:24:52.904Z,926.79
2017-05-19T02:25:05.760Z,926.77
2017-05-19T02:25:18.647Z,926.76
2017-05-19T02:25:31.479Z,926.78
2017-05-19T02:25:44.833Z,926.84
2017-05-19T02:25:58.248Z,926.75
2017-05-19T02:26:11.155Z,926.77
2017-05-19T02:26:24.543Z,926.76
2017-05-19T02:26:37.286Z,926.8
2017-05-19T02:26:50.702Z,926.73
2017-05-19T02:27:03.622Z,926.77
2017-05-19T02:27:15.449Z,926.75
2017-05-19T02:27:28.858Z,926.74
2017-05-19T02:27:42.348Z,926.78
2017-05-19T02:27:55.839Z,926.75
2017-05-19T02:28:08.745Z,926.77
2017-05-19T02:28:21.590Z,926.75
2017-05-19T02:28:34.946Z,926.7
2017-05-19T02:28:48.384Z,926.81
2017-05-19T02:29:01.443Z,926.73
2017-05-19T02:29:14.366Z,926.71
2017-05-19T02:29:26.141Z,926.7
2017-05-19T02:29:39.582Z,926.72
2017-05-19T02:29:52.437Z,926.71
2017-05-19T02:30:06.063Z,926.75
2017-05-19T02:30:19.431Z,926.75
2017-05-19T02:30:32.365Z,926.74
2017-05-19T02:30:45.821Z,926.74
2017-05-19T02:30:59.233Z,926.69
2017-05-19T02:31:12.091Z,926.73
2017-05-19T02:31:24.943Z,926.72
2017-05-19T02:31:38.392Z,926.73
2017-05-19T02:31:51.851Z,926.74
2017-05-19T02:32:05.221Z,926.74
2017-05-19T02:32:18.119Z,926.74
2017-05-19T02:32:31.481Z,926.73
2017-05-19T02:32:44.875Z,926.7
2017-05-19T02:32:58.285Z,926.73
2017-05-19T02:33:11.167Z,926.75
2017-05-19T02:33:23.998Z,926.75
2017-05-19T02:33:36.885Z,926.73
2017-05-19T02:33:50.360Z,926.72
2017-05-19T02:34:03.813Z,926.71
2017-05-19T02:34:15.578Z,926.74
2017-05-19T02:34:28.479Z,926.75
2017-05-19T02:34:41.884Z,926.76
2017-05-19T02:34:55.217Z,926.69
2017-05-19T02:35:08.608Z,926.7
2017-05-19T02:35:22.021Z,926.68
2017-05-19T02:35:34.943Z,926.68
2017-05-19T02:35:48.315Z,926.71
2017-05-19T02:36:01.812Z,926.64
2017-05-19T02:36:14.736Z,926.66
2017-05-19T02:36:28.090Z,926.71
2017-05-19T02:36:41.549Z,926.64
2017-05-19T02:36:54.993Z,926.64
2017-05-19T02:37:07.845Z,926.66
2017-05-19T02:37:20.185Z,926.65
2017-05-19T02:37:33.590Z,926.64
2017-05-19T02:37:46.970Z,926.67
2017-05-19T02:38:00.487Z,926.66
2017-05-19T02:38:13.386Z,926.69
2017-05-19T02:38:26.254Z,926.68
2017-05-19T02:38:39.147Z,926.66
2017-05-19T02:38:52.626Z,926.74
2017-05-19T02:39:05.478Z,926.69
2017-05-19T02:39:17.884Z,926.73
2017-05-19T02:39:30.781Z,926.73
2017-05-19T02:39:44.324Z,926.74
2017-05-19T02:39:57.310Z,926.72
2017-05-19T02:40:10.202Z,926.71
2017-05-19T02:40:23.072Z,926.73
2017-05-19T02:40:35.414Z,926.71
2017-05-19T02:40:48.826Z,926.76
2017-05-19T02:41:02.201Z,926.78
2017-05-19T02:41:15.601Z,926.81
2017-05-19T02:41:29.027Z,926.78
2017-05-19T02:41:42.378Z,926.77
2017-05-19T02:41:55.822Z,926.77
2017-05-19T02:42:09.229Z,926.74
2017-05-19T02:42:22.106Z,926.8
2017-05-19T02:42:35.528Z,926.79
2017-05-19T02:42:48.905Z,926.82
2017-05-19T02:43:01.905Z,926.8
2017-05-19T02:43:14.750Z,926.8
2017-05-19T02:43:27.595Z,926.76
2017-05-19T02:43:40.995Z,926.74
2017-05-19T02:43:53.818Z,926.73
2017-05-19T02:44:07.448Z,926.75
2017-05-19T02:44:20.379Z,926.74
2017-05-19T02:44:33.456Z,926.77
2017-05-19T02:44:46.815Z,926.73
2017-05-19T02:45:00.197Z,926.73
2017-05-19T02:45:13.078Z,926.77
2017-05-19T02:45:25.988Z,926.67
2017-05-19T02:45:39.469Z,926.71
2017-05-19T02:45:52.861Z,926.71
2017-05-19T02:46:06.256Z,926.72
2017-05-19T02:46:19.693Z,926.68
2017-05-19T02:46:33.161Z,926.69
2017-05-19T02:46:46.060Z,926.62
2017-05-19T02:46:59.427Z,926.66
2017-05-19T02:47:12.338Z,926.66
2017-05-19T02:47:25.721Z,926.65
2017-05-19T02:47:38.605Z,926.56
2017-05-19T02:47:52.106Z,926.54
2017-05-19T02:48:05.506Z,926.5
2017-05-19T02:48:18.934Z,926.5
2017-05-19T02:48:32.348Z,926.55
2017-05-19T02:48:45.775Z,926.5
2017-05-19T02:49:15.327Z,926.43
2017-05-19T02:49:28.406Z,926.45
2017-05-19T02:49:42.344Z,926.43
2017-05-19T02:49:55.841Z,926.35
2017-05-19T02:50:08.737Z,926.38
2017-05-19T02:50:21.633Z,926.39
2017-05-19T02:50:34.632Z,926.36
2017-05-19T02:50:48.022Z,926.35